sensor_id;sensor_type;location;lat;lon;timestamp;temperature;humidity
12907;DHT22;6521;50.498;8.474;2023-07-31T00:00:51;17.27;69.13
12907;DHT22;6521;50.498;8.474;2023-07-31T00:03:22;17.26;69.53
12907;DHT22;6521;50.498;8.474;2023-07-31T00:05:52;17.22;70.08
12907;DHT22;6521;50.498;8.474;2023-07-31T00:08:23;17.17;70.49
12907;DHT22;6521;50.498;8.474;2023-07-31T00:10:54;17.12;71.23
12907;DHT22;6521;50.498;8.474;2023-07-31T00:13:24;17.06;71.34
12907;DHT22;6521;50.498;8.474;2023-07-31T00:15:54;17.03;71.87
12907;DHT22;6521;50.498;8.474;2023-07-31T00:18:28;16.97;72.01
12907;DHT22;6521;50.498;8.474;2023-07-31T00:20:58;16.99;72.16
12907;DHT22;6521;50.498;8.474;2023-07-31T00:23:28;16.86;72.89
12907;DHT22;6521;50.498;8.474;2023-07-31T00:26:00;16.85;72.97
12907;DHT22;6521;50.498;8.474;2023-07-31T00:28:30;16.80;73.05
12907;DHT22;6521;50.498;8.474;2023-07-31T00:31:01;16.80;73.21
12907;DHT22;6521;50.498;8.474;2023-07-31T00:33:34;16.75;73.91
12907;DHT22;6521;50.498;8.474;2023-07-31T00:36:07;16.71;74.04
12907;DHT22;6521;50.498;8.474;2023-07-31T00:38:37;16.77;73.37
12907;DHT22;6521;50.498;8.474;2023-07-31T00:41:08;16.72;73.79
12907;DHT22;6521;50.498;8.474;2023-07-31T00:43:38;16.75;73.66
12907;DHT22;6521;50.498;8.474;2023-07-31T00:46:09;16.75;73.94
12907;DHT22;6521;50.498;8.474;2023-07-31T00:48:39;16.71;74.15
12907;DHT22;6521;50.498;8.474;2023-07-31T00:51:11;16.71;74.38
12907;DHT22;6521;50.498;8.474;2023-07-31T00:53:42;16.72;74.42
12907;DHT22;6521;50.498;8.474;2023-07-31T00:56:15;16.72;74.18
12907;DHT22;6521;50.498;8.474;2023-07-31T00:58:46;16.73;74.19
12907;DHT22;6521;50.498;8.474;2023-07-31T01:01:16;16.73;74.25
12907;DHT22;6521;50.498;8.474;2023-07-31T01:03:47;16.69;74.92
12907;DHT22;6521;50.498;8.474;2023-07-31T01:11:52;16.73;74.32
12907;DHT22;6521;50.498;8.474;2023-07-31T01:14:23;16.68;74.08
12907;DHT22;6521;50.498;8.474;2023-07-31T01:16:54;16.71;74.23
12907;DHT22;6521;50.498;8.474;2023-07-31T01:19:26;16.69;74.24
12907;DHT22;6521;50.498;8.474;2023-07-31T01:22:23;16.73;73.98
12907;DHT22;6521;50.498;8.474;2023-07-31T01:28:19;16.79;74.11
12907;DHT22;6521;50.498;8.474;2023-07-31T01:30:50;16.76;73.88
12907;DHT22;6521;50.498;8.474;2023-07-31T01:33:22;16.80;74.08
12907;DHT22;6521;50.498;8.474;2023-07-31T01:35:54;16.79;74.01
12907;DHT22;6521;50.498;8.474;2023-07-31T01:38:25;16.79;74.12
12907;DHT22;6521;50.498;8.474;2023-07-31T01:40:55;16.77;73.88
12907;DHT22;6521;50.498;8.474;2023-07-31T01:43:26;16.79;74.04
12907;DHT22;6521;50.498;8.474;2023-07-31T01:45:56;16.86;73.83
12907;DHT22;6521;50.498;8.474;2023-07-31T01:48:28;16.92;73.71
12907;DHT22;6521;50.498;8.474;2023-07-31T01:51:00;16.89;73.98
12907;DHT22;6521;50.498;8.474;2023-07-31T01:53:31;16.90;74.10
12907;DHT22;6521;50.498;8.474;2023-07-31T01:56:02;16.89;74.21
12907;DHT22;6521;50.498;8.474;2023-07-31T01:58:34;16.90;74.20
12907;DHT22;6521;50.498;8.474;2023-07-31T02:01:07;16.92;74.07
12907;DHT22;6521;50.498;8.474;2023-07-31T02:03:39;16.92;73.94
12907;DHT22;6521;50.498;8.474;2023-07-31T02:06:09;16.95;74.16
12907;DHT22;6521;50.498;8.474;2023-07-31T02:08:40;16.93;74.27
12907;DHT22;6521;50.498;8.474;2023-07-31T02:11:10;16.90;74.42
12907;DHT22;6521;50.498;8.474;2023-07-31T02:13:41;16.93;74.40
12907;DHT22;6521;50.498;8.474;2023-07-31T02:16:11;16.96;74.39
12907;DHT22;6521;50.498;8.474;2023-07-31T02:18:44;16.99;74.13
12907;DHT22;6521;50.498;8.474;2023-07-31T02:21:14;17.00;73.83
12907;DHT22;6521;50.498;8.474;2023-07-31T02:23:45;17.00;73.79
12907;DHT22;6521;50.498;8.474;2023-07-31T02:26:15;17.07;73.64
12907;DHT22;6521;50.498;8.474;2023-07-31T02:28:46;17.09;73.65
12907;DHT22;6521;50.498;8.474;2023-07-31T02:31:17;17.13;73.68
12907;DHT22;6521;50.498;8.474;2023-07-31T02:33:47;17.12;73.56
12907;DHT22;6521;50.498;8.474;2023-07-31T02:36:17;17.12;73.83
12907;DHT22;6521;50.498;8.474;2023-07-31T02:38:48;17.10;73.96
12907;DHT22;6521;50.498;8.474;2023-07-31T02:41:18;17.13;73.66
12907;DHT22;6521;50.498;8.474;2023-07-31T02:43:48;17.10;74.04
12907;DHT22;6521;50.498;8.474;2023-07-31T02:46:20;17.03;74.10
12907;DHT22;6521;50.498;8.474;2023-07-31T02:48:55;17.06;74.01
12907;DHT22;6521;50.498;8.474;2023-07-31T02:51:25;17.04;73.94
12907;DHT22;6521;50.498;8.474;2023-07-31T02:53:56;17.07;74.71
12907;DHT22;6521;50.498;8.474;2023-07-31T02:56:26;17.00;75.09
12907;DHT22;6521;50.498;8.474;2023-07-31T02:58:56;16.97;75.06
12907;DHT22;6521;50.498;8.474;2023-07-31T03:01:27;16.93;75.19
12907;DHT22;6521;50.498;8.474;2023-07-31T03:03:57;16.89;75.38
12907;DHT22;6521;50.498;8.474;2023-07-31T03:06:28;16.83;75.56
12907;DHT22;6521;50.498;8.474;2023-07-31T03:08:58;16.87;75.02
12907;DHT22;6521;50.498;8.474;2023-07-31T03:11:28;16.90;75.05
12907;DHT22;6521;50.498;8.474;2023-07-31T03:14:00;16.83;75.29
12907;DHT22;6521;50.498;8.474;2023-07-31T03:16:31;16.83;75.42
12907;DHT22;6521;50.498;8.474;2023-07-31T03:19:01;16.82;75.27
12907;DHT22;6521;50.498;8.474;2023-07-31T03:21:32;16.85;74.98
12907;DHT22;6521;50.498;8.474;2023-07-31T03:24:02;16.85;75.09
12907;DHT22;6521;50.498;8.474;2023-07-31T03:26:34;16.89;75.00
12907;DHT22;6521;50.498;8.474;2023-07-31T03:29:07;16.90;75.12
12907;DHT22;6521;50.498;8.474;2023-07-31T03:31:38;16.90;75.28
12907;DHT22;6521;50.498;8.474;2023-07-31T03:34:08;16.87;75.40
12907;DHT22;6521;50.498;8.474;2023-07-31T03:36:39;16.83;75.55
12907;DHT22;6521;50.498;8.474;2023-07-31T03:39:10;16.82;75.87
12907;DHT22;6521;50.498;8.474;2023-07-31T03:41:40;16.76;76.28
12907;DHT22;6521;50.498;8.474;2023-07-31T03:44:11;16.79;76.37
12907;DHT22;6521;50.498;8.474;2023-07-31T03:46:41;16.76;76.33
12907;DHT22;6521;50.498;8.474;2023-07-31T03:49:12;16.82;76.49
12907;DHT22;6521;50.498;8.474;2023-07-31T03:51:42;16.83;76.44
12907;DHT22;6521;50.498;8.474;2023-07-31T03:54:13;16.80;76.89
12907;DHT22;6521;50.498;8.474;2023-07-31T03:56:44;16.79;76.92
12907;DHT22;6521;50.498;8.474;2023-07-31T03:59:14;16.80;76.94
12907;DHT22;6521;50.498;8.474;2023-07-31T04:01:46;16.77;77.05
12907;DHT22;6521;50.498;8.474;2023-07-31T04:04:16;16.75;77.16
12907;DHT22;6521;50.498;8.474;2023-07-31T04:06:46;16.76;77.02
12907;DHT22;6521;50.498;8.474;2023-07-31T04:09:17;16.76;77.11
12907;DHT22;6521;50.498;8.474;2023-07-31T04:11:48;16.79;77.04
12907;DHT22;6521;50.498;8.474;2023-07-31T04:14:18;16.77;77.19
12907;DHT22;6521;50.498;8.474;2023-07-31T04:16:50;16.76;77.22
12907;DHT22;6521;50.498;8.474;2023-07-31T04:19:22;16.77;77.00
12907;DHT22;6521;50.498;8.474;2023-07-31T04:21:54;16.86;77.03
12907;DHT22;6521;50.498;8.474;2023-07-31T04:24:24;16.85;76.92
12907;DHT22;6521;50.498;8.474;2023-07-31T04:26:55;16.79;77.45
12907;DHT22;6521;50.498;8.474;2023-07-31T04:29:26;16.79;77.46
12907;DHT22;6521;50.498;8.474;2023-07-31T04:31:56;16.82;77.47
12907;DHT22;6521;50.498;8.474;2023-07-31T04:34:27;16.82;77.35
12907;DHT22;6521;50.498;8.474;2023-07-31T04:36:58;16.85;77.37
12907;DHT22;6521;50.498;8.474;2023-07-31T04:39:29;16.87;77.40
12907;DHT22;6521;50.498;8.474;2023-07-31T04:41:59;16.92;77.34
12907;DHT22;6521;50.498;8.474;2023-07-31T04:44:29;16.89;77.46
12907;DHT22;6521;50.498;8.474;2023-07-31T04:47:00;16.92;77.56
12907;DHT22;6521;50.498;8.474;2023-07-31T04:49:32;16.90;77.68
12907;DHT22;6521;50.498;8.474;2023-07-31T04:52:07;16.90;77.87
12907;DHT22;6521;50.498;8.474;2023-07-31T04:54:37;16.87;77.81
12907;DHT22;6521;50.498;8.474;2023-07-31T04:57:07;16.92;77.97
12907;DHT22;6521;50.498;8.474;2023-07-31T04:59:38;16.92;77.92
12907;DHT22;6521;50.498;8.474;2023-07-31T05:02:11;16.95;78.01
12907;DHT22;6521;50.498;8.474;2023-07-31T05:04:42;16.96;77.92
12907;DHT22;6521;50.498;8.474;2023-07-31T05:07:12;16.97;78.12
12907;DHT22;6521;50.498;8.474;2023-07-31T05:09:43;16.97;78.17
12907;DHT22;6521;50.498;8.474;2023-07-31T05:12:13;16.97;78.40
12907;DHT22;6521;50.498;8.474;2023-07-31T05:14:43;16.97;78.36
12907;DHT22;6521;50.498;8.474;2023-07-31T05:17:14;16.97;78.50
12907;DHT22;6521;50.498;8.474;2023-07-31T05:19:44;16.97;78.56
12907;DHT22;6521;50.498;8.474;2023-07-31T05:22:15;17.02;78.68
12907;DHT22;6521;50.498;8.474;2023-07-31T05:24:45;17.02;78.43
12907;DHT22;6521;50.498;8.474;2023-07-31T05:27:17;17.03;78.34
12907;DHT22;6521;50.498;8.474;2023-07-31T05:29:48;17.06;78.21
12907;DHT22;6521;50.498;8.474;2023-07-31T05:32:19;17.03;78.52
12907;DHT22;6521;50.498;8.474;2023-07-31T05:34:52;17.04;78.32
12907;DHT22;6521;50.498;8.474;2023-07-31T05:37:24;17.03;78.73
12907;DHT22;6521;50.498;8.474;2023-07-31T05:39:54;17.07;78.38
12907;DHT22;6521;50.498;8.474;2023-07-31T05:42:26;17.03;78.65
12907;DHT22;6521;50.498;8.474;2023-07-31T05:44:57;17.03;78.92
12907;DHT22;6521;50.498;8.474;2023-07-31T05:47:27;17.09;78.72
12907;DHT22;6521;50.498;8.474;2023-07-31T05:49:57;17.12;78.88
12907;DHT22;6521;50.498;8.474;2023-07-31T05:52:28;17.07;78.95
12907;DHT22;6521;50.498;8.474;2023-07-31T05:54:59;17.07;79.17
12907;DHT22;6521;50.498;8.474;2023-07-31T05:57:29;17.16;79.06
12907;DHT22;6521;50.498;8.474;2023-07-31T06:00:00;17.22;79.16
12907;DHT22;6521;50.498;8.474;2023-07-31T06:02:30;17.33;78.76
12907;DHT22;6521;50.498;8.474;2023-07-31T06:05:04;17.37;78.88
12907;DHT22;6521;50.498;8.474;2023-07-31T06:07:36;17.43;78.40
12907;DHT22;6521;50.498;8.474;2023-07-31T06:10:07;17.44;78.39
12907;DHT22;6521;50.498;8.474;2023-07-31T06:12:38;17.51;78.60
12907;DHT22;6521;50.498;8.474;2023-07-31T06:15:09;17.55;78.17
12907;DHT22;6521;50.498;8.474;2023-07-31T06:17:40;17.54;77.93
12907;DHT22;6521;50.498;8.474;2023-07-31T06:20:11;17.54;77.99
12907;DHT22;6521;50.498;8.474;2023-07-31T06:22:42;17.57;77.31
12907;DHT22;6521;50.498;8.474;2023-07-31T06:25:13;17.57;77.63
12907;DHT22;6521;50.498;8.474;2023-07-31T06:27:43;17.64;77.11
12907;DHT22;6521;50.498;8.474;2023-07-31T06:30:13;17.67;77.08
12907;DHT22;6521;50.498;8.474;2023-07-31T06:32:44;17.68;76.97
12907;DHT22;6521;50.498;8.474;2023-07-31T06:35:16;17.61;77.01
12907;DHT22;6521;50.498;8.474;2023-07-31T06:37:47;17.60;77.02
12907;DHT22;6521;50.498;8.474;2023-07-31T06:40:18;17.64;77.53
12907;DHT22;6521;50.498;8.474;2023-07-31T06:42:49;17.70;77.21
12907;DHT22;6521;50.498;8.474;2023-07-31T06:45:20;17.70;76.88
12907;DHT22;6521;50.498;8.474;2023-07-31T06:47:54;17.70;76.67
12907;DHT22;6521;50.498;8.474;2023-07-31T06:50:25;17.81;76.81
12907;DHT22;6521;50.498;8.474;2023-07-31T06:52:55;17.91;76.34
12907;DHT22;6521;50.498;8.474;2023-07-31T06:55:26;18.02;75.71
12907;DHT22;6521;50.498;8.474;2023-07-31T06:57:57;18.12;75.75
12907;DHT22;6521;50.498;8.474;2023-07-31T07:00:27;18.22;74.99
12907;DHT22;6521;50.498;8.474;2023-07-31T07:02:58;18.22;74.86
12907;DHT22;6521;50.498;8.474;2023-07-31T07:05:29;18.25;75.04
12907;DHT22;6521;50.498;8.474;2023-07-31T07:07:59;18.30;74.50
12907;DHT22;6521;50.498;8.474;2023-07-31T07:10:30;18.37;74.90
12907;DHT22;6521;50.498;8.474;2023-07-31T07:13:01;18.42;74.18
12907;DHT22;6521;50.498;8.474;2023-07-31T07:15:32;18.46;73.85
12907;DHT22;6521;50.498;8.474;2023-07-31T07:18:02;18.42;74.18
12907;DHT22;6521;50.498;8.474;2023-07-31T07:20:33;18.36;73.73
12907;DHT22;6521;50.498;8.474;2023-07-31T07:23:04;18.33;73.77
12907;DHT22;6521;50.498;8.474;2023-07-31T07:25:37;18.28;73.50
12907;DHT22;6521;50.498;8.474;2023-07-31T07:28:08;18.19;73.96
12907;DHT22;6521;50.498;8.474;2023-07-31T07:30:39;18.16;74.20
12907;DHT22;6521;50.498;8.474;2023-07-31T07:33:10;18.14;74.21
12907;DHT22;6521;50.498;8.474;2023-07-31T07:35:40;18.17;74.48
12907;DHT22;6521;50.498;8.474;2023-07-31T07:38:11;18.14;74.59
12907;DHT22;6521;50.498;8.474;2023-07-31T07:40:42;18.10;75.09
12907;DHT22;6521;50.498;8.474;2023-07-31T07:43:14;18.10;74.80
12907;DHT22;6521;50.498;8.474;2023-07-31T07:45:44;18.10;75.12
12907;DHT22;6521;50.498;8.474;2023-07-31T07:48:27;18.06;74.83
12907;DHT22;6521;50.498;8.474;2023-07-31T07:50:57;18.06;75.10
12907;DHT22;6521;50.498;8.474;2023-07-31T07:53:27;18.10;75.10
12907;DHT22;6521;50.498;8.474;2023-07-31T07:55:58;18.17;74.88
12907;DHT22;6521;50.498;8.474;2023-07-31T07:58:28;18.22;74.70
12907;DHT22;6521;50.498;8.474;2023-07-31T08:00:58;18.33;74.38
12907;DHT22;6521;50.498;8.474;2023-07-31T08:03:29;18.42;73.95
12907;DHT22;6521;50.498;8.474;2023-07-31T08:06:00;18.56;72.77
12907;DHT22;6521;50.498;8.474;2023-07-31T08:08:31;18.59;72.35
12907;DHT22;6521;50.498;8.474;2023-07-31T08:11:01;18.63;72.47
12907;DHT22;6521;50.498;8.474;2023-07-31T08:13:34;18.74;72.23
12907;DHT22;6521;50.498;8.474;2023-07-31T08:16:07;18.81;72.38
12907;DHT22;6521;50.498;8.474;2023-07-31T08:18:37;18.92;72.32
12907;DHT22;6521;50.498;8.474;2023-07-31T08:21:08;19.00;70.92
12907;DHT22;6521;50.498;8.474;2023-07-31T08:23:39;18.95;70.89
12907;DHT22;6521;50.498;8.474;2023-07-31T08:26:15;18.94;70.79
12907;DHT22;6521;50.498;8.474;2023-07-31T08:28:45;19.12;71.06
12907;DHT22;6521;50.498;8.474;2023-07-31T08:31:16;19.19;70.02
12907;DHT22;6521;50.498;8.474;2023-07-31T08:33:46;19.21;69.59
12907;DHT22;6521;50.498;8.474;2023-07-31T08:36:16;19.26;69.32
12907;DHT22;6521;50.498;8.474;2023-07-31T08:38:50;19.28;70.42
12907;DHT22;6521;50.498;8.474;2023-07-31T08:41:21;19.16;69.67
12907;DHT22;6521;50.498;8.474;2023-07-31T08:43:53;19.26;69.64
12907;DHT22;6521;50.498;8.474;2023-07-31T08:46:25;19.29;69.68
12907;DHT22;6521;50.498;8.474;2023-07-31T08:48:56;19.38;68.43
12907;DHT22;6521;50.498;8.474;2023-07-31T08:51:29;19.33;69.14
12907;DHT22;6521;50.498;8.474;2023-07-31T08:54:01;19.26;69.21
12907;DHT22;6521;50.498;8.474;2023-07-31T08:56:35;19.28;69.74
12907;DHT22;6521;50.498;8.474;2023-07-31T08:59:07;19.15;69.99
12907;DHT22;6521;50.498;8.474;2023-07-31T09:01:43;19.04;70.75
12907;DHT22;6521;50.498;8.474;2023-07-31T09:04:15;19.09;70.83
12907;DHT22;6521;50.498;8.474;2023-07-31T09:06:47;19.02;71.76
12907;DHT22;6521;50.498;8.474;2023-07-31T09:09:19;18.91;72.66
12907;DHT22;6521;50.498;8.474;2023-07-31T09:11:51;18.75;73.23
12907;DHT22;6521;50.498;8.474;2023-07-31T09:14:24;18.63;74.50
12907;DHT22;6521;50.498;8.474;2023-07-31T09:16:56;18.47;75.68
12907;DHT22;6521;50.498;8.474;2023-07-31T09:19:32;18.34;77.44
12907;DHT22;6521;50.498;8.474;2023-07-31T09:22:06;18.23;78.19
12907;DHT22;6521;50.498;8.474;2023-07-31T09:24:37;18.14;79.21
12907;DHT22;6521;50.498;8.474;2023-07-31T09:27:07;18.19;79.78
12907;DHT22;6521;50.498;8.474;2023-07-31T09:29:40;18.13;80.49
12907;DHT22;6521;50.498;8.474;2023-07-31T09:32:16;18.13;81.50
12907;DHT22;6521;50.498;8.474;2023-07-31T09:34:47;18.19;81.77
12907;DHT22;6521;50.498;8.474;2023-07-31T09:37:18;18.09;81.81
12907;DHT22;6521;50.498;8.474;2023-07-31T09:39:49;18.01;82.52
12907;DHT22;6521;50.498;8.474;2023-07-31T09:42:26;17.99;82.85
12907;DHT22;6521;50.498;8.474;2023-07-31T09:45:09;17.88;83.45
12907;DHT22;6521;50.498;8.474;2023-07-31T09:47:46;17.84;84.34
12907;DHT22;6521;50.498;8.474;2023-07-31T09:50:19;17.78;84.51
12907;DHT22;6521;50.498;8.474;2023-07-31T09:52:51;17.77;85.34
12907;DHT22;6521;50.498;8.474;2023-07-31T09:55:23;17.75;85.00
12907;DHT22;6521;50.498;8.474;2023-07-31T09:57:56;17.62;85.36
12907;DHT22;6521;50.498;8.474;2023-07-31T10:00:29;17.50;85.81
12907;DHT22;6521;50.498;8.474;2023-07-31T10:03:04;17.41;85.35
12907;DHT22;6521;50.498;8.474;2023-07-31T10:05:44;17.35;86.19
12907;DHT22;6521;50.498;8.474;2023-07-31T10:08:18;17.27;86.07
12907;DHT22;6521;50.498;8.474;2023-07-31T10:10:50;17.34;86.34
12907;DHT22;6521;50.498;8.474;2023-07-31T10:13:20;17.38;86.04
12907;DHT22;6521;50.498;8.474;2023-07-31T10:15:53;17.45;85.79
12907;DHT22;6521;50.498;8.474;2023-07-31T10:18:25;17.48;85.62
12907;DHT22;6521;50.498;8.474;2023-07-31T10:20:56;17.55;86.00
12907;DHT22;6521;50.498;8.474;2023-07-31T10:23:27;17.62;85.52
12907;DHT22;6521;50.498;8.474;2023-07-31T10:25:58;17.81;85.44
12907;DHT22;6521;50.498;8.474;2023-07-31T10:28:29;18.01;85.13
12907;DHT22;6521;50.498;8.474;2023-07-31T10:31:02;18.10;83.81
12907;DHT22;6521;50.498;8.474;2023-07-31T10:33:33;18.14;83.69
12907;DHT22;6521;50.498;8.474;2023-07-31T10:36:20;18.13;83.71
12907;DHT22;6521;50.498;8.474;2023-07-31T10:38:51;18.12;84.04
12907;DHT22;6521;50.498;8.474;2023-07-31T10:41:31;18.06;82.51
12907;DHT22;6521;50.498;8.474;2023-07-31T10:44:02;18.16;82.79
12907;DHT22;6521;50.498;8.474;2023-07-31T10:46:32;18.22;82.96
12907;DHT22;6521;50.498;8.474;2023-07-31T10:49:04;18.23;82.67
12907;DHT22;6521;50.498;8.474;2023-07-31T10:51:35;18.20;82.35
12907;DHT22;6521;50.498;8.474;2023-07-31T10:54:11;18.09;82.64
12907;DHT22;6521;50.498;8.474;2023-07-31T10:56:46;17.99;82.42
12907;DHT22;6521;50.498;8.474;2023-07-31T10:59:18;17.96;82.75
12907;DHT22;6521;50.498;8.474;2023-07-31T11:01:52;18.02;83.00
12907;DHT22;6521;50.498;8.474;2023-07-31T11:04:26;18.06;83.15
12907;DHT22;6521;50.498;8.474;2023-07-31T11:06:59;18.14;83.06
12907;DHT22;6521;50.498;8.474;2023-07-31T11:09:31;18.22;83.01
12907;DHT22;6521;50.498;8.474;2023-07-31T11:12:03;18.26;82.50
12907;DHT22;6521;50.498;8.474;2023-07-31T11:14:33;18.32;82.51
12907;DHT22;6521;50.498;8.474;2023-07-31T11:17:07;18.40;82.13
12907;DHT22;6521;50.498;8.474;2023-07-31T11:19:37;18.59;81.69
12907;DHT22;6521;50.498;8.474;2023-07-31T11:22:08;18.74;80.85
12907;DHT22;6521;50.498;8.474;2023-07-31T11:24:39;18.72;79.93
12907;DHT22;6521;50.498;8.474;2023-07-31T11:27:09;18.84;79.02
12907;DHT22;6521;50.498;8.474;2023-07-31T11:29:40;18.84;77.87
12907;DHT22;6521;50.498;8.474;2023-07-31T11:32:16;18.88;78.49
12907;DHT22;6521;50.498;8.474;2023-07-31T11:34:54;18.94;78.59
12907;DHT22;6521;50.498;8.474;2023-07-31T11:37:38;18.92;78.05
12907;DHT22;6521;50.498;8.474;2023-07-31T11:40:09;18.90;77.33
12907;DHT22;6521;50.498;8.474;2023-07-31T11:42:40;18.87;77.48
12907;DHT22;6521;50.498;8.474;2023-07-31T11:45:11;18.95;77.82
12907;DHT22;6521;50.498;8.474;2023-07-31T11:47:41;19.00;76.96
12907;DHT22;6521;50.498;8.474;2023-07-31T11:50:12;19.07;76.16
12907;DHT22;6521;50.498;8.474;2023-07-31T11:52:44;19.01;75.36
12907;DHT22;6521;50.498;8.474;2023-07-31T11:55:15;18.98;74.98
12907;DHT22;6521;50.498;8.474;2023-07-31T11:57:46;19.02;75.49
12907;DHT22;6521;50.498;8.474;2023-07-31T12:00:17;19.02;75.82
12907;DHT22;6521;50.498;8.474;2023-07-31T12:02:50;19.05;75.32
12907;DHT22;6521;50.498;8.474;2023-07-31T12:05:21;19.02;74.19
12907;DHT22;6521;50.498;8.474;2023-07-31T12:07:54;19.08;75.16
12907;DHT22;6521;50.498;8.474;2023-07-31T12:10:29;19.18;74.03
12907;DHT22;6521;50.498;8.474;2023-07-31T12:13:07;19.16;74.04
12907;DHT22;6521;50.498;8.474;2023-07-31T12:15:43;19.16;74.76
12907;DHT22;6521;50.498;8.474;2023-07-31T12:18:21;19.19;73.66
12907;DHT22;6521;50.498;8.474;2023-07-31T12:20:58;19.26;73.74
12907;DHT22;6521;50.498;8.474;2023-07-31T12:23:31;19.22;73.76
12907;DHT22;6521;50.498;8.474;2023-07-31T12:26:14;19.28;74.60
12907;DHT22;6521;50.498;8.474;2023-07-31T12:28:49;19.38;74.06
12907;DHT22;6521;50.498;8.474;2023-07-31T12:31:22;19.50;73.54
12907;DHT22;6521;50.498;8.474;2023-07-31T12:33:52;19.65;73.58
12907;DHT22;6521;50.498;8.474;2023-07-31T12:36:24;19.79;73.70
12907;DHT22;6521;50.498;8.474;2023-07-31T12:38:55;19.91;71.78
12907;DHT22;6521;50.498;8.474;2023-07-31T12:41:27;20.07;72.45
12907;DHT22;6521;50.498;8.474;2023-07-31T12:43:59;20.14;71.83
12907;DHT22;6521;50.498;8.474;2023-07-31T12:46:29;20.14;71.55
12907;DHT22;6521;50.498;8.474;2023-07-31T12:49:00;20.16;70.86
12907;DHT22;6521;50.498;8.474;2023-07-31T12:51:31;20.11;71.16
12907;DHT22;6521;50.498;8.474;2023-07-31T12:54:01;20.11;72.14
12907;DHT22;6521;50.498;8.474;2023-07-31T12:56:32;20.10;72.13
12907;DHT22;6521;50.498;8.474;2023-07-31T12:59:02;20.13;71.23
12907;DHT22;6521;50.498;8.474;2023-07-31T13:01:33;20.14;71.64
12907;DHT22;6521;50.498;8.474;2023-07-31T13:04:04;20.25;70.78
12907;DHT22;6521;50.498;8.474;2023-07-31T13:06:41;20.35;71.28
12907;DHT22;6521;50.498;8.474;2023-07-31T13:09:11;20.39;70.46
12907;DHT22;6521;50.498;8.474;2023-07-31T13:11:43;20.39;70.17
12907;DHT22;6521;50.498;8.474;2023-07-31T13:14:13;20.48;69.88
12907;DHT22;6521;50.498;8.474;2023-07-31T13:16:44;20.49;70.20
12907;DHT22;6521;50.498;8.474;2023-07-31T13:19:15;20.39;69.77
12907;DHT22;6521;50.498;8.474;2023-07-31T13:21:46;20.46;69.79
12907;DHT22;6521;50.498;8.474;2023-07-31T13:24:18;20.59;69.19
12907;DHT22;6521;50.498;8.474;2023-07-31T13:26:48;20.87;67.85
12907;DHT22;6521;50.498;8.474;2023-07-31T13:29:19;21.33;68.16
12907;DHT22;6521;50.498;8.474;2023-07-31T13:31:49;21.71;65.64
12907;DHT22;6521;50.498;8.474;2023-07-31T13:34:19;21.79;64.60
12907;DHT22;6521;50.498;8.474;2023-07-31T13:36:50;21.69;64.82
12907;DHT22;6521;50.498;8.474;2023-07-31T13:39:20;21.75;66.51
12907;DHT22;6521;50.498;8.474;2023-07-31T13:41:51;21.75;65.53
12907;DHT22;6521;50.498;8.474;2023-07-31T13:44:21;21.64;64.73
12907;DHT22;6521;50.498;8.474;2023-07-31T13:46:52;21.51;64.49
12907;DHT22;6521;50.498;8.474;2023-07-31T13:49:22;21.34;64.41
12907;DHT22;6521;50.498;8.474;2023-07-31T13:51:53;21.31;65.39
12907;DHT22;6521;50.498;8.474;2023-07-31T13:54:24;21.22;64.61
12907;DHT22;6521;50.498;8.474;2023-07-31T13:56:55;21.13;65.11
12907;DHT22;6521;50.498;8.474;2023-07-31T13:59:26;21.07;65.60
12907;DHT22;6521;50.498;8.474;2023-07-31T14:01:56;21.04;65.52
12907;DHT22;6521;50.498;8.474;2023-07-31T14:04:27;21.07;65.76
12907;DHT22;6521;50.498;8.474;2023-07-31T14:06:58;21.11;65.09
12907;DHT22;6521;50.498;8.474;2023-07-31T14:09:29;21.17;65.50
12907;DHT22;6521;50.498;8.474;2023-07-31T14:12:00;21.19;65.35
12907;DHT22;6521;50.498;8.474;2023-07-31T14:14:31;21.16;66.83
12907;DHT22;6521;50.498;8.474;2023-07-31T14:17:04;21.20;65.39
12907;DHT22;6521;50.498;8.474;2023-07-31T14:19:35;21.22;65.34
12907;DHT22;6521;50.498;8.474;2023-07-31T14:22:06;21.11;65.89
12907;DHT22;6521;50.498;8.474;2023-07-31T14:24:37;21.19;65.51
12907;DHT22;6521;50.498;8.474;2023-07-31T14:27:08;21.16;65.78
12907;DHT22;6521;50.498;8.474;2023-07-31T14:29:40;21.13;66.13
12907;DHT22;6521;50.498;8.474;2023-07-31T14:32:10;21.08;65.70
12907;DHT22;6521;50.498;8.474;2023-07-31T14:34:40;21.08;65.18
12907;DHT22;6521;50.498;8.474;2023-07-31T14:37:11;21.07;64.95
12907;DHT22;6521;50.498;8.474;2023-07-31T14:39:43;21.13;64.74
12907;DHT22;6521;50.498;8.474;2023-07-31T14:42:16;21.11;64.14
12907;DHT22;6521;50.498;8.474;2023-07-31T14:44:48;21.11;64.84
12907;DHT22;6521;50.498;8.474;2023-07-31T14:47:19;21.17;65.09
12907;DHT22;6521;50.498;8.474;2023-07-31T14:49:50;21.14;64.73
12907;DHT22;6521;50.498;8.474;2023-07-31T14:52:21;21.17;65.04
12907;DHT22;6521;50.498;8.474;2023-07-31T14:54:52;21.27;65.04
12907;DHT22;6521;50.498;8.474;2023-07-31T14:57:23;21.27;64.04
12907;DHT22;6521;50.498;8.474;2023-07-31T14:59:53;21.19;64.66
12907;DHT22;6521;50.498;8.474;2023-07-31T15:02:25;21.13;65.15
12907;DHT22;6521;50.498;8.474;2023-07-31T15:04:56;21.06;65.06
12907;DHT22;6521;50.498;8.474;2023-07-31T15:07:26;20.99;65.60
12907;DHT22;6521;50.498;8.474;2023-07-31T15:09:56;20.96;65.07
12907;DHT22;6521;50.498;8.474;2023-07-31T15:12:27;20.93;64.98
12907;DHT22;6521;50.498;8.474;2023-07-31T15:14:58;20.96;65.31
12907;DHT22;6521;50.498;8.474;2023-07-31T15:17:28;20.96;65.93
12907;DHT22;6521;50.498;8.474;2023-07-31T15:20:01;20.93;65.24
12907;DHT22;6521;50.498;8.474;2023-07-31T15:22:35;20.96;65.36
12907;DHT22;6521;50.498;8.474;2023-07-31T15:25:06;21.03;64.99
12907;DHT22;6521;50.498;8.474;2023-07-31T15:27:37;21.02;65.30
12907;DHT22;6521;50.498;8.474;2023-07-31T15:30:08;20.95;65.55
12907;DHT22;6521;50.498;8.474;2023-07-31T15:32:39;20.93;66.06
12907;DHT22;6521;50.498;8.474;2023-07-31T15:35:09;20.87;66.27
12907;DHT22;6521;50.498;8.474;2023-07-31T15:37:39;20.86;66.86
12907;DHT22;6521;50.498;8.474;2023-07-31T15:40:11;20.83;66.36
12907;DHT22;6521;50.498;8.474;2023-07-31T15:42:41;20.77;66.32
12907;DHT22;6521;50.498;8.474;2023-07-31T15:45:12;20.73;66.43
12907;DHT22;6521;50.498;8.474;2023-07-31T15:47:42;20.64;66.83
12907;DHT22;6521;50.498;8.474;2023-07-31T15:50:13;20.53;67.07
12907;DHT22;6521;50.498;8.474;2023-07-31T15:52:43;20.44;67.15
12907;DHT22;6521;50.498;8.474;2023-07-31T15:55:14;20.35;67.45
12907;DHT22;6521;50.498;8.474;2023-07-31T15:57:46;20.25;67.06
12907;DHT22;6521;50.498;8.474;2023-07-31T16:00:16;20.16;67.72
12907;DHT22;6521;50.498;8.474;2023-07-31T16:02:47;20.13;67.33
12907;DHT22;6521;50.498;8.474;2023-07-31T16:05:18;20.03;67.52
12907;DHT22;6521;50.498;8.474;2023-07-31T16:07:49;20.04;67.88
12907;DHT22;6521;50.498;8.474;2023-07-31T16:10:19;19.96;67.64
12907;DHT22;6521;50.498;8.474;2023-07-31T16:12:50;19.90;68.18
12907;DHT22;6521;50.498;8.474;2023-07-31T16:15:20;19.87;68.46
12907;DHT22;6521;50.498;8.474;2023-07-31T16:17:54;19.86;68.18
12907;DHT22;6521;50.498;8.474;2023-07-31T16:20:24;19.81;68.58